AirNav   Bose Proflight Series 2 Wireless Aviation Headset
 
 1751 users online  

91TS Songbird Ranch Airport
Rosharon, Texas, USA

GOING TO ROSHARON?


FAA INFORMATION EFFECTIVE 07 NOVEMBER 2019

Location

FAA Identifier: 91TS
Lat/Long: 29-22-02.6700N 095-20-26.0000W
29-22.044500N 095-20.433333W
29.3674083,-95.3405556
(estimated)
Elevation: 34 ft. / 10 m (estimated)
Variation: 06E (1985)
From city: 6 miles E of ROSHARON, TX
Time zone: UTC -6 (UTC -5 during Daylight Saving Time)
Zip code: 77583

Airport Operations

Airport use: Private use. Permission required prior to landing
Activation date: 06/1987
Control tower: no
ARTCC: HOUSTON CENTER
FSS: MONTGOMERY COUNTY FLIGHT SERVICE STATION
Attendance: UNATNDD
Wind indicator: yes
Segmented circle: no

Airport Communications

WX ASOS at LVJ (11 nm NE): 118.525 (281-992-1853)
WX AWOS-3 at AXH (11 nm NW): 123.625 (281-431-6572)
WX ASOS at LBX (17 nm S): 119.925 (979-849-3319)
WX ASOS at HOU (17 nm N): PHONE 713-847-1462

Nearby radio navigation aids

VOR radial/distance  VOR name  Freq  Var
HUBr186/17.6HOBBY VOR/DME117.1005E
VUHr277/25.4SCHOLES VOR/DME113.0006E
MHFr244/32.8TRINITY VOR/DME113.6007E
IAHr175/35.4HUMBLE VORTAC116.6005E

 
NDB name  Hdg/Dist  Freq  Var  ID
FREEP027/12.226305ELB .-.. -...
GALVESTON266/30.620608EGLS --. .-.. ...

Airport Services

Runway Information

Runway 15/33

Dimensions: 3200 x 30 ft. / 975 x 9 m
Surface: concrete
RUNWAY 15  RUNWAY 33
Traffic pattern: leftright
Obstructions: 50 ft. trees, 300 ft. from runway40 ft. pline, 150 ft. from runway

Airport Ownership and Management from official FAA records

Ownership: Privately-owned
Owner: SONGBIRD RANCH INC
16 SONGBIRD DRIVE
ROSHARON, TX 77583
Phone 281-331-0195
Manager: NEILL NORTHINGTON
16 SONGBIRD DRIVE
ROSHARON, TX 77583
Phone 281-585-5199
OTHER CONTACT RICK CARR 281-331-0195

Airport Operational Statistics

Aircraft based on the field: 18
Single engine airplanes: 16
Multi engine airplanes: 2
    

Additional Remarks

FOR CD CTC HOUSTON ARTCC AT 281-230-5622.

Instrument Procedures

There are no published instrument procedures at 91TS.

Some nearby airports with instrument procedures:

KLVJ - Pearland Regional Airport (11 nm NE)
KAXH - Houston Southwest Airport (11 nm NW)
KLBX - Texas Gulf Coast Regional Airport (17 nm S)
KHOU - William P Hobby Airport (17 nm N)
KEFD - Ellington Airport (17 nm NE)
 
Loc | Ops | Rwys | IFR | FBO | Links
Com | Nav | Svcs | Stats | Notes
Area around 91TS (Songbird Ranch Airport)
 
Road maps at: MapQuest Bing Google
 
Aerial photo
WARNING: Photo may not be current or correct
Aerial photo of 91TS (Songbird Ranch Airport)
Photo taken 11-May-2009

Do you have a better or more recent aerial photo of Songbird Ranch Airport that you would like to share? If so, please send us your photo.

 
Sectional chart

 
Airport distance calculator
Flying to Songbird Ranch Airport? Find the distance to fly.

From to 91TS

Sunrise and sunset
Times for 20-Nov-2019
 Local
(UTC-6)
 Zulu
(UTC)
Morning civil twilight06:2512:25
Sunrise06:5012:50
Sunset17:2423:24
Evening civil twilight17:4923:49

Current date and time
Zulu (UTC)  20-Nov-2019 20:10:09
Local (UTC-6)  20-Nov-2019 14:10:09
 
METAR
KLVJ 
10nm NE 
201953Z AUTO 16016G23KT 10SM FEW033 26/17 A2999 RMK AO2 SLP155 T02610167
KAXH 
11nm NW 
201955Z AUTO 15013G21KT 10SM SCT033 SCT047 25/18 A2999 RMK AO2 T02490181
KHOU 
16nm N 
201953Z 16016G24KT 10SM FEW040 SCT055 BKN250 27/16 A2997 RMK AO2 PK WND 16026/1936 SLP154 T02670161
KLBX 
16nm SW 
201953Z AUTO 15017G28KT 10SM CLR 27/18 A2997 RMK AO2 PK WND 15028/1946 SLP150 T02670183
KEFD 
17nm NE 
201950Z 13018KT 10SM FEW040 BKN250 26/17 A2997
TAF
KHOU 
16nm N 
201720Z 2018/2118 15014KT P6SM SCT040 BKN060 FM210400 14009KT P6SM SCT015 BKN025 FM210900 14007KT P6SM VCSH SCT015 BKN025 BKN045 FM211500 15010KT P6SM VCSH BKN035
KLBX 
16nm SW 
201720Z 2018/2118 15017KT P6SM VCSH BKN025 FM202300 15013KT P6SM SCT025 BKN035 FM210400 16011KT P6SM BKN015 OVC025 FM210800 16009KT P6SM VCSH BKN015 FM211500 16014KT P6SM VCSH SCT025 BKN035
KEFD 
17nm NE 
201200Z 2012/2118 13006KT 9999 SCT015 BKN030 QNH2998INS BECMG 2017/2018 15015G25KT 9999 BKN050 QNH2992INS BECMG 2022/2023 14012KT 9999 BKN030 QNH2991INS BECMG 2106/2107 16012KT 6000 BR BKN010 QNH2995INS TX25/2019Z TN14/2012Z
NOTAMs
Click for the latest NOTAMs
NOTAMs are issued by the DoD/FAA and will open in a separate window not controlled by AirNav.

 

 
 

Would you like to see your business listed on this page?

 If your business provides an interesting product or service to pilots, flight crews, aircraft, or users of the Songbird Ranch Airport, you should consider listing it here.  To start the listing process, click on the button below
 
Add a business
 

Other Pages about Songbird Ranch Airport

Update a link
 
Copyright © AirNav, LLC. All rights reserved. Privacy Policy  Contact